Time;durP1;ratioP1;P1;durP2;ratioP2;P2;SDS_P1;SDS_P2;PMS_P1;PMS_P2;Temp;Humidity;BMP_temperature;BMP_pressure;BME280_temperature;BME280_humidity;BME280_pressure;Samples;Min_cycle;Max_cycle;Signal;HPM_P1;HPM_P2
2021/07/27 00:00:11;;;;;;;4.90;4.40;;;18.00;99.90;;;;;;4996907;28;20495;-81
2021/07/27 00:02:38;;;;;;;5.30;4.77;;;18.00;99.90;;;;;;4997428;28;20795;-81
2021/07/27 00:05:07;;;;;;;9.03;4.73;;;18.10;99.90;;;;;;4997093;28;20465;-80
2021/07/27 00:07:37;;;;;;;5.07;4.37;;;18.10;99.90;;;;;;4997920;28;20442;-81
2021/07/27 00:10:05;;;;;;;4.60;4.20;;;18.10;99.90;;;;;;4996896;28;20953;-81
2021/07/27 00:12:32;;;;;;;6.50;5.03;;;18.10;99.90;;;;;;4997068;28;20565;-81
2021/07/27 00:14:59;;;;;;;5.20;4.70;;;18.10;99.90;;;;;;4996603;28;20801;-81
2021/07/27 00:17:28;;;;;;;10.10;5.23;;;18.10;99.90;;;;;;4996294;28;20735;-80
2021/07/27 00:19:55;;;;;;;5.00;4.50;;;18.00;99.90;;;;;;4996976;28;20498;-81
2021/07/27 00:22:25;;;;;;;7.87;5.07;;;18.00;99.90;;;;;;4997444;28;20781;-80
2021/07/27 00:24:53;;;;;;;5.73;4.60;;;17.90;99.90;;;;;;4997218;28;20466;-81
2021/07/27 00:27:20;;;;;;;7.70;5.30;;;17.90;99.90;;;;;;4997508;28;20456;-80
2021/07/27 00:29:47;;;;;;;5.50;4.93;;;17.90;99.90;;;;;;4997023;28;20489;-81
2021/07/27 00:32:14;;;;;;;5.53;5.03;;;17.90;99.90;;;;;;4996267;28;20439;-81
2021/07/27 00:34:41;;;;;;;10.10;5.13;;;17.90;99.90;;;;;;4999971;28;20657;-81
2021/07/27 00:37:16;;;;;;;7.37;4.73;;;17.90;99.90;;;;;;4997121;28;20475;-81
2021/07/27 00:39:44;;;;;;;7.90;4.90;;;17.90;99.90;;;;;;4997078;28;20552;-80
2021/07/27 00:42:14;;;;;;;7.17;5.23;;;17.80;99.90;;;;;;4996883;28;21010;-80
2021/07/27 00:44:41;;;;;;;5.40;4.57;;;17.70;99.90;;;;;;4996153;28;20509;-79
2021/07/27 00:47:08;;;;;;;5.53;4.87;;;17.70;99.90;;;;;;4997036;28;20831;-80
2021/07/27 00:49:35;;;;;;;5.53;5.03;;;17.70;99.90;;;;;;4997920;28;20478;-81
2021/07/27 00:52:03;;;;;;;5.70;5.20;;;17.70;99.90;;;;;;4997742;28;20615;-80
2021/07/27 00:54:30;;;;;;;5.20;4.70;;;17.70;99.90;;;;;;5009683;28;20451;-81
2021/07/27 00:56:59;;;;;;;4.70;4.17;;;17.70;99.90;;;;;;5001134;28;20472;-80
2021/07/27 00:59:28;;;;;;;7.20;4.43;;;17.70;99.90;;;;;;4996286;28;20901;-81
2021/07/27 01:01:55;;;;;;;5.87;4.77;;;17.70;99.90;;;;;;4997570;28;20471;-81
2021/07/27 01:04:22;;;;;;;5.60;4.87;;;17.70;99.90;;;;;;4996669;28;20496;-80
2021/07/27 01:06:49;;;;;;;6.40;5.70;;;17.70;99.90;;;;;;4998034;28;20498;-80
2021/07/27 01:09:16;;;;;;;5.40;4.77;;;17.70;99.90;;;;;;4997113;28;20478;-80
2021/07/27 01:11:44;;;;;;;5.40;4.43;;;17.70;99.90;;;;;;5001267;28;20538;-81
2021/07/27 01:14:13;;;;;;;5.30;4.70;;;17.70;99.90;;;;;;5001412;28;20460;-80
2021/07/27 01:16:40;;;;;;;5.53;4.97;;;17.70;99.90;;;;;;5004118;28;20437;-80
2021/07/27 01:19:18;;;;;;;7.17;6.10;;;17.70;99.90;;;;;;5005268;28;20465;-80
2021/07/27 01:38:35;;;;;;;6.60;5.33;;;17.70;99.90;;;;;;5020683;28;20442;-79
2021/07/27 01:42:03;;;;;;;6.63;5.00;;;17.70;99.90;;;;;;5008522;28;20461;-80
2021/07/27 01:43:52;;;;;;;5.13;4.70;;;17.60;99.90;;;;;;5019492;28;20453;-79
2021/07/27 01:46:23;;;;;;;5.30;4.80;;;17.60;99.90;;;;;;5020245;28;20459;-79
2021/07/27 01:48:50;;;;;;;7.40;5.23;;;17.60;99.90;;;;;;5006507;28;20494;-80
2021/07/27 01:51:23;;;;;;;5.53;5.03;;;17.60;99.90;;;;;;5005120;28;20454;-79
2021/07/27 01:53:51;;;;;;;6.63;4.80;;;17.60;99.90;;;;;;4999850;28;20512;-80
2021/07/27 01:56:21;;;;;;;6.40;5.80;;;17.60;99.90;;;;;;4999128;28;20538;-80
2021/07/27 01:58:50;;;;;;;6.50;5.47;;;17.60;99.90;;;;;;4999775;28;20561;-80
2021/07/27 02:01:19;;;;;;;6.47;5.23;;;17.60;99.90;;;;;;4999528;28;20540;-80
2021/07/27 02:03:46;;;;;;;5.80;5.20;;;17.60;99.90;;;;;;4999007;28;20739;-80
2021/07/27 02:06:13;;;;;;;5.73;5.17;;;17.60;99.90;;;;;;4998954;28;20550;-80
2021/07/27 02:08:40;;;;;;;6.63;5.80;;;17.60;99.90;;;;;;4998944;28;21028;-80
2021/07/27 02:11:11;;;;;;;6.57;5.47;;;17.50;99.90;;;;;;4999200;28;20463;-80
2021/07/27 02:13:47;;;;;;;9.50;5.30;;;17.60;99.90;;;;;;4998645;28;20524;-80
2021/07/27 02:16:14;;;;;;;6.60;5.13;;;17.50;99.90;;;;;;4999179;28;20428;-80
2021/07/27 02:18:41;;;;;;;7.30;5.87;;;17.50;99.90;;;;;;4999239;28;20511;-80
2021/07/27 02:21:08;;;;;;;6.57;5.80;;;17.40;99.90;;;;;;4999201;28;20504;-80
2021/07/27 02:23:35;;;;;;;6.00;5.50;;;17.40;99.90;;;;;;5001391;28;20464;-79
2021/07/27 02:26:04;;;;;;;7.67;6.40;;;17.40;99.90;;;;;;4999518;28;20478;-80
2021/07/27 02:28:32;;;;;;;6.17;5.57;;;17.50;99.90;;;;;;4998120;28;20490;-80
2021/07/27 02:31:03;;;;;;;6.63;5.33;;;17.50;99.90;;;;;;4998189;28;20457;-80
2021/07/27 02:33:32;;;;;;;7.07;5.70;;;17.50;99.90;;;;;;4998355;28;20494;-80
2021/07/27 02:35:58;;;;;;;7.83;5.37;;;17.50;99.90;;;;;;4999006;28;20494;-81
2021/07/27 02:38:25;;;;;;;7.00;5.47;;;17.50;99.90;;;;;;4998618;28;20481;-80
2021/07/27 02:40:52;;;;;;;12.50;6.90;;;17.50;99.90;;;;;;4998131;28;20491;-80
2021/07/27 02:43:19;;;;;;;6.40;5.80;;;17.40;99.90;;;;;;4998482;28;20497;-80
2021/07/27 02:45:46;;;;;;;6.00;5.40;;;17.50;99.90;;;;;;4998349;28;20519;-80
2021/07/27 02:48:14;;;;;;;11.50;5.70;;;17.50;99.90;;;;;;4998975;28;20544;-80
2021/07/27 02:50:49;;;;;;;5.83;5.33;;;17.50;99.90;;;;;;4999908;28;20510;-81
2021/07/27 02:53:16;;;;;;;6.57;5.80;;;17.50;99.90;;;;;;5000379;28;20453;-80
2021/07/27 02:55:43;;;;;;;7.70;5.40;;;17.60;99.90;;;;;;5002034;28;20472;-80
2021/07/27 02:58:31;;;;;;;6.93;5.70;;;17.60;99.90;;;;;;5002332;28;20436;-80
2021/07/27 03:00:58;;;;;;;5.60;4.50;;;17.60;99.90;;;;;;4999547;28;20498;-80
2021/07/27 03:03:26;;;;;;;6.33;4.90;;;17.60;99.90;;;;;;4999218;28;20477;-81
2021/07/27 03:06:00;;;;;;;6.30;5.20;;;17.50;99.90;;;;;;5001149;28;20814;-81
2021/07/27 03:08:45;;;;;;;5.60;5.10;;;17.50;99.90;;;;;;5001728;28;20844;-81
2021/07/27 03:11:13;;;;;;;6.33;4.83;;;17.50;99.90;;;;;;5006086;28;20461;-81
2021/07/27 03:13:40;;;;;;;8.33;5.70;;;17.50;99.90;;;;;;5000009;28;20442;-81
2021/07/27 03:16:07;;;;;;;9.80;6.23;;;17.50;99.90;;;;;;5000397;28;20489;-81
2021/07/27 03:18:35;;;;;;;6.80;5.80;;;17.40;99.90;;;;;;5003568;28;20475;-81
2021/07/27 03:21:02;;;;;;;5.60;5.10;;;17.30;99.90;;;;;;5000853;28;20519;-81
2021/07/27 03:23:29;;;;;;;6.90;6.20;;;17.40;99.90;;;;;;5010530;28;20432;-81
2021/07/27 03:25:56;;;;;;;6.43;5.30;;;17.30;99.90;;;;;;5011281;28;20417;-81
2021/07/27 03:28:23;;;;;;;7.07;5.47;;;17.30;99.90;;;;;;5000988;28;20516;-80
2021/07/27 03:30:50;;;;;;;6.60;5.70;;;17.30;99.90;;;;;;5011148;28;20450;-80
2021/07/27 03:33:17;;;;;;;6.13;5.47;;;17.30;99.90;;;;;;5016830;28;20500;-79
2021/07/27 03:35:46;;;;;;;6.13;5.63;;;17.30;99.90;;;;;;5008416;28;20522;-79
2021/07/27 03:38:12;;;;;;;6.10;5.50;;;17.30;99.90;;;;;;4998603;28;20493;-79
2021/07/27 03:40:40;;;;;;;6.47;5.73;;;17.30;99.90;;;;;;4998914;28;20563;-79
2021/07/27 03:43:07;;;;;;;6.70;4.90;;;17.30;99.90;;;;;;4998365;28;20452;-80
2021/07/27 03:45:33;;;;;;;6.40;5.80;;;17.30;99.80;;;;;;4999133;28;20511;-80
2021/07/27 03:48:01;;;;;;;7.03;5.60;;;17.30;99.70;;;;;;5000439;28;20517;-80
2021/07/27 03:50:28;;;;;;;7.47;5.23;;;17.30;99.70;;;;;;4999821;28;20457;-79
2021/07/27 03:52:56;;;;;;;6.77;5.33;;;17.30;99.70;;;;;;4999789;28;20466;-80
2021/07/27 03:55:24;;;;;;;5.80;5.30;;;17.30;99.70;;;;;;4999350;28;20505;-80
2021/07/27 03:57:51;;;;;;;6.77;4.80;;;17.30;99.70;;;;;;5002936;28;20516;-79
2021/07/27 04:00:18;;;;;;;8.00;5.17;;;17.20;99.60;;;;;;5012149;28;20440;-81
2021/07/27 04:02:45;;;;;;;6.07;4.97;;;17.20;99.40;;;;;;5013582;28;20465;-80
2021/07/27 04:05:12;;;;;;;5.23;4.73;;;17.30;99.40;;;;;;5014031;28;20467;-80
2021/07/27 04:07:39;;;;;;;5.53;5.00;;;17.30;99.70;;;;;;5013707;28;20486;-80
2021/07/27 04:10:08;;;;;;;7.20;5.00;;;17.30;99.60;;;;;;5012672;28;20455;-81
2021/07/27 04:12:36;;;;;;;8.83;5.10;;;17.30;99.70;;;;;;5012522;28;20446;-81
2021/07/27 04:15:03;;;;;;;5.80;5.30;;;17.30;99.70;;;;;;5001359;28;20509;-82
2021/07/27 04:17:30;;;;;;;5.90;5.40;;;17.40;99.70;;;;;;5004388;28;20479;-82
2021/07/27 04:19:57;;;;;;;5.73;5.17;;;17.40;99.40;;;;;;5009698;28;20505;-81
2021/07/27 04:22:24;;;;;;;5.83;5.23;;;17.50;99.30;;;;;;5016155;28;20446;-82
2021/07/27 04:24:52;;;;;;;5.17;4.60;;;17.60;98.50;;;;;;5009783;28;20441;-82
2021/07/27 04:27:21;;;;;;;6.73;5.20;;;17.70;98.10;;;;;;5009553;28;20538;-82
2021/07/27 04:29:49;;;;;;;6.50;5.90;;;17.80;98.10;;;;;;5015000;28;20471;-82
2021/07/27 04:32:15;;;;;;;10.63;5.73;;;17.80;97.30;;;;;;5017640;28;20481;-82
2021/07/27 04:34:42;;;;;;;5.23;4.73;;;17.90;96.90;;;;;;5018448;28;20440;-81
2021/07/27 04:37:09;;;;;;;6.47;5.87;;;18.00;96.50;;;;;;5018665;28;20556;-83
2021/07/27 04:39:37;;;;;;;6.63;5.23;;;18.20;95.30;;;;;;5017790;28;20465;-83
2021/07/27 04:42:04;;;;;;;7.80;4.80;;;18.30;94.00;;;;;;5018178;28;20483;-83
2021/07/27 04:44:32;;;;;;;8.20;5.07;;;18.40;92.90;;;;;;5017668;28;20422;-83
2021/07/27 04:46:59;;;;;;;10.40;5.00;;;18.50;91.70;;;;;;5017519;28;20443;-82
2021/07/27 04:49:26;;;;;;;5.70;4.70;;;18.50;91.10;;;;;;5017993;28;20468;-83
2021/07/27 04:51:53;;;;;;;6.47;4.80;;;18.60;91.10;;;;;;5018076;28;20474;-83
2021/07/27 04:54:28;;;;;;;5.37;4.87;;;18.70;90.40;;;;;;5017598;28;20500;-82
2021/07/27 04:56:55;;;;;;;7.00;5.00;;;18.80;90.00;;;;;;5018438;28;20450;-82
2021/07/27 04:59:22;;;;;;;11.03;4.73;;;19.10;87.70;;;;;;5017876;28;20502;-82
2021/07/27 05:01:50;;;;;;;4.70;4.30;;;19.50;84.60;;;;;;5017954;28;20475;-82
2021/07/27 05:04:17;;;;;;;5.47;4.50;;;20.00;80.20;;;;;;5021582;28;20458;-82
2021/07/27 05:06:44;;;;;;;7.00;4.80;;;20.70;74.00;;;;;;5021819;28;20472;-82
2021/07/27 05:09:11;;;;;;;8.93;4.60;;;21.40;67.40;;;;;;5021793;28;20469;-82
2021/07/27 05:11:38;;;;;;;5.90;4.73;;;21.80;63.40;;;;;;5021532;28;20443;-83
2021/07/27 05:14:07;;;;;;;5.37;4.47;;;22.00;61.30;;;;;;5021279;28;20474;-82
2021/07/27 05:16:34;;;;;;;8.53;4.70;;;22.20;62.10;;;;;;5021318;28;20470;-81
2021/07/27 05:19:22;;;;;;;4.57;4.17;;;22.90;59.50;;;;;;5021217;28;20472;-82
2021/07/27 05:21:50;;;;;;;5.40;4.07;;;23.30;56.00;;;;;;5021477;28;20485;-82
2021/07/27 05:24:17;;;;;;;4.90;3.80;;;23.40;54.00;;;;;;5021207;28;20430;-83
2021/07/27 05:26:44;;;;;;;5.23;3.80;;;23.50;52.90;;;;;;5020670;28;20426;-82
2021/07/27 05:29:11;;;;;;;4.93;4.20;;;23.70;52.40;;;;;;5021318;28;20498;-82
2021/07/27 05:31:38;;;;;;;4.70;4.20;;;23.90;52.50;;;;;;5021139;28;20468;-81
2021/07/27 05:34:07;;;;;;;5.27;4.20;;;24.30;50.90;;;;;;5021250;28;20428;-82
2021/07/27 05:36:36;;;;;;;7.73;4.20;;;24.20;51.70;;;;;;5021229;28;20524;-82
2021/07/27 05:39:03;;;;;;;7.00;3.80;;;24.40;50.00;;;;;;5021088;28;20488;-81
2021/07/27 05:41:30;;;;;;;5.50;4.07;;;24.60;49.50;;;;;;5030255;28;20480;-82
2021/07/27 05:43:57;;;;;;;5.73;4.10;;;24.90;49.20;;;;;;5040677;28;20427;-82
2021/07/27 05:46:24;;;;;;;3.90;3.50;;;25.70;47.00;;;;;;5039824;28;20453;-83
2021/07/27 05:48:53;;;;;;;5.20;3.97;;;26.20;44.30;;;;;;5040121;28;20480;-82
2021/07/27 05:51:21;;;;;;;3.90;3.60;;;26.40;44.50;;;;;;5037874;28;20528;-83
2021/07/27 05:53:49;;;;;;;4.57;4.10;;;26.20;44.30;;;;;;5030376;28;20475;-82
2021/07/27 05:56:16;;;;;;;6.57;4.10;;;25.70;44.00;;;;;;5034544;28;20464;-83
2021/07/27 05:58:43;;;;;;;6.57;3.83;;;25.30;44.80;;;;;;5037209;28;20437;-82
2021/07/27 06:01:10;;;;;;;4.70;4.30;;;24.30;48.10;;;;;;5029147;28;20466;-82
2021/07/27 06:03:37;;;;;;;5.90;4.17;;;23.60;50.60;;;;;;5036685;28;20451;-84
2021/07/27 06:06:04;;;;;;;4.50;4.07;;;23.30;52.00;;;;;;5035806;28;20425;-82
2021/07/27 06:08:31;;;;;;;5.10;4.50;;;23.10;51.90;;;;;;5036113;28;20481;-83
2021/07/27 06:10:59;;;;;;;4.50;4.10;;;23.00;53.70;;;;;;5036941;28;20462;-81
2021/07/27 06:13:27;;;;;;;5.67;4.70;;;22.80;54.10;;;;;;5039218;28;20476;-83
2021/07/27 06:15:55;;;;;;;9.30;5.40;;;22.70;54.90;;;;;;5032153;28;20491;-80
2021/07/27 06:18:22;;;;;;;5.80;5.27;;;22.60;55.90;;;;;;5021310;28;20851;-80
2021/07/27 06:20:48;;;;;;;5.13;4.63;;;22.50;56.10;;;;;;5021328;28;20483;-81
2021/07/27 06:23:15;;;;;;;6.63;4.70;;;22.60;56.60;;;;;;5020605;28;20537;-80
2021/07/27 06:25:42;;;;;;;5.50;4.80;;;22.70;56.70;;;;;;5022108;28;20453;-80
2021/07/27 06:28:10;;;;;;;5.13;4.63;;;23.20;53.80;;;;;;5022742;28;20466;-80
2021/07/27 06:30:37;;;;;;;6.73;5.20;;;23.30;53.10;;;;;;5026026;28;20463;-80
2021/07/27 06:33:04;;;;;;;4.50;3.67;;;23.60;52.20;;;;;;5033876;28;20505;-80
2021/07/27 06:35:31;;;;;;;5.80;4.87;;;23.40;52.00;;;;;;5022866;28;20467;-80
2021/07/27 06:37:58;;;;;;;7.50;5.40;;;23.00;53.40;;;;;;5022074;28;20459;-80
2021/07/27 06:40:25;;;;;;;6.60;4.90;;;22.50;55.90;;;;;;5021777;28;20440;-79
2021/07/27 06:42:52;;;;;;;6.83;5.40;;;22.50;56.90;;;;;;5022771;28;20490;-80
2021/07/27 06:45:20;;;;;;;5.37;4.93;;;22.70;56.10;;;;;;5023854;28;20470;-79
2021/07/27 06:47:47;;;;;;;4.90;4.40;;;22.90;55.90;;;;;;5028263;28;20477;-80
2021/07/27 06:50:16;;;;;;;6.60;4.50;;;23.40;54.50;;;;;;5025473;28;20490;-81
2021/07/27 06:52:43;;;;;;;6.70;4.70;;;23.90;52.50;;;;;;5025261;28;20870;-80
2021/07/27 06:55:10;;;;;;;5.40;4.90;;;24.10;51.80;;;;;;5023964;28;20464;-81
2021/07/27 06:57:37;;;;;;;9.27;4.60;;;24.20;51.10;;;;;;5027652;28;20426;-80
2021/07/27 07:00:05;;;;;;;5.80;5.30;;;24.10;52.70;;;;;;5022172;28;20488;-81
2021/07/27 07:02:34;;;;;;;5.70;4.70;;;24.00;52.20;;;;;;5021285;28;20462;-80
2021/07/27 07:05:01;;;;;;;7.77;5.27;;;24.00;52.00;;;;;;5021466;28;20437;-81
2021/07/27 07:07:28;;;;;;;5.50;4.70;;;24.00;52.00;;;;;;5018501;28;20455;-81
2021/07/27 07:09:55;;;;;;;7.50;5.50;;;24.20;51.60;;;;;;5020151;28;20456;-80
2021/07/27 07:12:26;;;;;;;4.80;4.33;;;24.10;51.10;;;;;;5019771;28;20557;-81
2021/07/27 07:14:56;;;;;;;9.23;4.87;;;24.10;51.10;;;;;;5019183;28;20626;-81
2021/07/27 07:17:23;;;;;;;6.27;4.57;;;24.20;50.40;;;;;;5019092;28;20442;-81
2021/07/27 07:19:51;;;;;;;8.77;4.93;;;24.30;50.10;;;;;;5020107;28;20486;-81
2021/07/27 07:22:19;;;;;;;6.83;4.43;;;24.40;49.50;;;;;;5019678;28;20501;-82
2021/07/27 07:24:46;;;;;;;8.10;4.40;;;24.30;49.80;;;;;;5020164;28;20478;-81
2021/07/27 07:27:16;;;;;;;4.90;4.50;;;24.60;49.20;;;;;;5033733;28;20449;-82
2021/07/27 07:29:43;;;;;;;11.50;4.67;;;24.50;48.40;;;;;;5028081;28;20858;-80
2021/07/27 07:32:10;;;;;;;6.60;4.03;;;24.10;49.70;;;;;;5033186;28;20485;-80
2021/07/27 07:34:37;;;;;;;6.30;4.93;;;23.80;50.20;;;;;;5038227;28;20441;-80
2021/07/27 07:37:07;;;;;;;5.03;4.63;;;23.70;51.30;;;;;;5028979;28;20847;-80
2021/07/27 07:39:35;;;;;;;5.30;4.80;;;23.80;51.30;;;;;;5030753;28;20485;-80
2021/07/27 07:42:02;;;;;;;5.67;5.17;;;23.80;51.20;;;;;;5037803;28;20460;-81
2021/07/27 07:44:29;;;;;;;8.77;4.83;;;23.90;50.60;;;;;;5028453;28;20526;-81
2021/07/27 07:46:56;;;;;;;4.50;4.10;;;24.00;50.10;;;;;;5028736;28;20778;-80
2021/07/27 07:49:24;;;;;;;4.87;4.40;;;24.20;50.30;;;;;;5029657;28;20484;-80
2021/07/27 07:51:51;;;;;;;4.70;4.30;;;24.50;49.80;;;;;;5027400;28;20450;-79
2021/07/27 07:54:19;;;;;;;5.40;4.90;;;24.50;49.50;;;;;;5025785;28;20432;-79
2021/07/27 07:56:47;;;;;;;5.27;4.77;;;24.60;49.40;;;;;;5025702;28;20936;-79
2021/07/27 07:59:14;;;;;;;4.87;4.53;;;24.50;47.80;;;;;;5021376;28;20476;-80
2021/07/27 08:01:45;;;;;;;7.80;4.40;;;24.30;48.60;;;;;;5017492;28;20985;-80
2021/07/27 08:04:12;;;;;;;5.10;4.50;;;24.20;48.10;;;;;;5017798;28;20944;-82
2021/07/27 08:06:39;;;;;;;4.60;4.20;;;24.40;48.00;;;;;;5020849;28;20435;-79
2021/07/27 08:09:06;;;;;;;4.90;4.20;;;24.60;47.70;;;;;;5016500;28;20451;-81
2021/07/27 08:11:35;;;;;;;6.00;4.50;;;24.60;46.50;;;;;;5017391;28;20434;-80
2021/07/27 08:14:02;;;;;;;7.60;4.90;;;24.70;46.10;;;;;;5022160;28;20817;-81
2021/07/27 08:16:29;;;;;;;5.73;4.60;;;24.70;46.00;;;;;;5020834;28;20459;-81
2021/07/27 08:18:56;;;;;;;5.13;4.43;;;24.50;46.70;;;;;;5026179;28;20488;-81
2021/07/27 08:21:24;;;;;;;6.20;4.80;;;24.60;47.20;;;;;;5026544;28;20439;-80
2021/07/27 08:23:51;;;;;;;4.63;4.13;;;24.70;47.50;;;;;;5021149;28;20435;-81
2021/07/27 08:26:18;;;;;;;5.27;4.77;;;24.70;46.90;;;;;;5021014;28;20799;-80
2021/07/27 08:28:47;;;;;;;4.90;4.50;;;24.70;46.80;;;;;;5026916;28;20507;-80
2021/07/27 08:31:14;;;;;;;4.57;4.17;;;24.70;47.00;;;;;;5026041;28;20907;-80
2021/07/27 08:33:42;;;;;;;5.30;4.47;;;24.60;46.80;;;;;;5020728;28;20927;-80
2021/07/27 08:36:09;;;;;;;5.20;4.70;;;24.60;47.20;;;;;;5020242;28;20460;-81
2021/07/27 08:38:36;;;;;;;5.40;4.90;;;24.70;47.30;;;;;;5019857;28;20455;-81
2021/07/27 08:41:05;;;;;;;6.10;4.50;;;24.60;47.40;;;;;;5020148;28;20487;-80
2021/07/27 08:43:32;;;;;;;6.73;5.47;;;24.70;47.00;;;;;;5020995;28;20488;-80
2021/07/27 08:46:01;;;;;;;5.93;4.50;;;24.70;46.90;;;;;;5024182;28;20451;-80
2021/07/27 08:48:28;;;;;;;9.87;4.40;;;24.60;47.50;;;;;;5022434;28;20449;-80
2021/07/27 08:50:55;;;;;;;5.43;4.97;;;24.60;47.20;;;;;;5029721;28;20504;-80
2021/07/27 08:53:22;;;;;;;6.30;4.70;;;24.90;46.60;;;;;;5030959;28;20452;-80
2021/07/27 08:55:49;;;;;;;5.70;5.07;;;25.00;46.20;;;;;;5032840;28;20445;-78
2021/07/27 08:58:18;;;;;;;5.53;5.03;;;25.20;45.40;;;;;;5035153;28;20475;-81
2021/07/27 09:00:45;;;;;;;6.20;5.00;;;25.40;44.70;;;;;;5028923;28;20435;-81
2021/07/27 09:03:16;;;;;;;5.83;5.00;;;25.50;43.80;;;;;;5021886;28;20523;-81
2021/07/27 09:05:43;;;;;;;5.90;4.67;;;25.60;43.90;;;;;;5022129;28;20483;-79
2021/07/27 09:08:11;;;;;;;5.60;5.00;;;26.00;44.20;;;;;;5018771;28;20537;-81
2021/07/27 09:10:39;;;;;;;5.90;5.40;;;26.00;43.40;;;;;;5019786;28;20425;-80
2021/07/27 09:13:08;;;;;;;6.83;5.50;;;26.10;43.10;;;;;;5021380;28;20458;-80
2021/07/27 09:15:36;;;;;;;4.93;4.53;;;26.30;42.10;;;;;;5020836;28;20474;-80
2021/07/27 09:18:05;;;;;;;5.60;5.10;;;26.50;42.20;;;;;;5020583;28;20515;-80
2021/07/27 09:20:35;;;;;;;5.30;4.87;;;26.30;41.50;;;;;;5032813;28;20429;-81
2021/07/27 09:23:03;;;;;;;5.23;4.83;;;26.20;41.20;;;;;;5036182;28;20477;-80
2021/07/27 09:25:32;;;;;;;7.10;5.53;;;26.30;41.30;;;;;;5037096;28;20468;-80
2021/07/27 09:28:04;;;;;;;6.10;5.13;;;26.40;39.80;;;;;;5027096;28;20432;-80
2021/07/27 09:30:31;;;;;;;5.97;5.43;;;26.60;39.50;;;;;;5020641;28;20445;-80
2021/07/27 09:32:59;;;;;;;7.53;5.10;;;26.80;39.60;;;;;;5020435;28;20455;-80
2021/07/27 09:35:27;;;;;;;5.00;4.60;;;27.10;38.90;;;;;;5020242;28;20459;-80
2021/07/27 09:38:10;;;;;;;5.50;5.00;;;26.90;38.60;;;;;;5019345;28;20780;-80
2021/07/27 09:40:48;;;;;;;5.70;5.20;;;26.70;39.40;;;;;;5021206;28;20969;-80
2021/07/27 09:43:17;;;;;;;5.00;4.50;;;26.60;39.40;;;;;;5019855;28;20483;-81
2021/07/27 09:45:46;;;;;;;5.93;5.23;;;26.70;40.30;;;;;;5020320;28;20478;-80
2021/07/27 09:48:14;;;;;;;5.30;4.90;;;26.80;40.00;;;;;;5020450;28;20533;-80
2021/07/27 09:50:41;;;;;;;5.87;5.37;;;27.00;38.00;;;;;;5022787;28;20446;-81
2021/07/27 09:53:10;;;;;;;5.00;4.60;;;26.80;38.80;;;;;;5022740;28;20451;-81
2021/07/27 09:55:38;;;;;;;5.70;4.90;;;26.60;38.40;;;;;;5025071;28;20464;-81
2021/07/27 09:58:05;;;;;;;5.17;4.67;;;26.50;38.40;;;;;;5022303;28;20437;-79
2021/07/27 10:00:34;;;;;;;5.77;4.80;;;26.60;38.50;;;;;;5026278;28;20462;-82
2021/07/27 10:03:03;;;;;;;5.00;4.60;;;26.80;38.20;;;;;;5021759;28;20496;-82
2021/07/27 10:05:31;;;;;;;13.10;5.43;;;26.90;38.90;;;;;;5029082;28;20460;-81
2021/07/27 10:07:59;;;;;;;4.83;4.40;;;27.10;38.30;;;;;;5020243;28;20462;-81
2021/07/27 10:10:46;;;;;;;5.90;5.40;;;27.00;38.30;;;;;;5019832;28;20488;-82
2021/07/27 10:13:16;;;;;;;5.33;4.83;;;27.20;37.00;;;;;;5018976;28;20801;-82
2021/07/27 10:15:45;;;;;;;10.90;4.97;;;27.10;37.70;;;;;;5020098;28;20466;-82
2021/07/27 10:18:13;;;;;;;5.53;5.00;;;27.30;37.00;;;;;;5019220;28;20491;-82
2021/07/27 10:20:41;;;;;;;5.30;4.70;;;27.50;36.40;;;;;;5019244;28;20550;-83
2021/07/27 10:23:18;;;;;;;5.80;4.93;;;27.60;36.20;;;;;;5019380;28;20577;-82
2021/07/27 10:26:00;;;;;;;5.03;4.20;;;27.60;36.40;;;;;;5019045;28;21028;-82
2021/07/27 10:28:28;;;;;;;5.90;4.90;;;28.00;35.30;;;;;;5020596;28;20974;-82
2021/07/27 10:31:15;;;;;;;4.57;4.27;;;28.10;35.40;;;;;;5032305;28;20410;-81
2021/07/27 10:36:26;;;;;;;4.33;4.00;;;28.00;35.30;;;;;;5325249;22;20483;-79
2021/07/27 10:38:53;;;;;;;4.90;4.50;;;28.20;35.40;;;;;;5098226;28;20476;-81
2021/07/27 10:41:22;;;;;;;5.17;4.67;;;28.30;35.50;;;;;;5096287;28;20721;-81
2021/07/27 10:43:49;;;;;;;5.80;4.70;;;28.40;34.60;;;;;;5077959;28;20916;-81
2021/07/27 10:46:26;;;;;;;4.30;3.90;;;27.80;35.10;;;;;;5080260;28;20417;-81
2021/07/27 10:48:53;;;;;;;4.87;4.47;;;27.80;35.10;;;;;;5079879;28;20950;-80
2021/07/27 10:51:25;;;;;;;5.30;4.70;;;27.90;35.80;;;;;;5084494;28;20427;-80
2021/07/27 10:53:53;;;;;;;5.20;4.67;;;28.00;35.30;;;;;;5083036;28;20468;-81
2021/07/27 10:56:28;;;;;;;7.00;4.50;;;27.70;36.40;;;;;;5083380;28;20427;-80
2021/07/27 10:58:55;;;;;;;5.13;4.70;;;27.70;35.90;;;;;;5082322;28;20460;-81
2021/07/27 11:01:30;;;;;;;4.60;4.20;;;27.60;36.00;;;;;;5087235;28;20472;-81
2021/07/27 11:04:09;;;;;;;5.70;5.20;;;27.60;35.10;;;;;;5092758;28;20507;-80
2021/07/27 11:06:36;;;;;;;5.90;4.40;;;27.60;35.00;;;;;;5084585;28;21001;-81
2021/07/27 11:09:03;;;;;;;5.30;4.80;;;27.30;35.10;;;;;;5064350;28;20473;-82
2021/07/27 11:11:32;;;;;;;5.50;5.00;;;27.10;36.10;;;;;;5067568;28;20454;-80
2021/07/27 11:13:59;;;;;;;4.97;4.47;;;26.90;35.60;;;;;;5074379;28;20453;-81
2021/07/27 11:16:26;;;;;;;5.30;4.87;;;27.10;35.20;;;;;;5076041;28;20456;-81
2021/07/27 11:18:53;;;;;;;5.23;4.63;;;27.30;35.50;;;;;;5074982;28;20478;-82
2021/07/27 11:21:20;;;;;;;6.53;4.70;;;27.70;35.00;;;;;;5076712;28;20441;-81
2021/07/27 11:23:48;;;;;;;5.30;4.63;;;27.80;34.50;;;;;;5069347;28;20484;-81
2021/07/27 11:26:15;;;;;;;6.30;5.10;;;27.90;35.20;;;;;;5069103;28;20428;-82
2021/07/27 11:28:43;;;;;;;8.60;4.60;;;28.10;35.30;;;;;;5070447;28;20448;-81
2021/07/27 11:31:18;;;;;;;4.37;4.00;;;28.10;34.20;;;;;;5074361;28;20427;-82
2021/07/27 11:33:52;;;;;;;4.87;4.37;;;28.10;33.30;;;;;;5077341;28;20458;-81
2021/07/27 11:36:23;;;;;;;5.10;4.70;;;28.30;32.00;;;;;;5078114;28;20427;-83
2021/07/27 11:38:50;;;;;;;4.63;4.23;;;28.40;31.50;;;;;;5086049;28;20873;-81
2021/07/27 11:41:21;;;;;;;7.13;4.97;;;28.20;31.60;;;;;;5085130;28;20415;-82
2021/07/27 11:43:50;;;;;;;5.37;4.80;;;28.30;31.70;;;;;;5083724;28;20507;-82
2021/07/27 11:46:19;;;;;;;5.37;4.87;;;28.50;30.90;;;;;;5082895;28;20467;-83
2021/07/27 11:48:53;;;;;;;4.83;4.33;;;28.70;30.40;;;;;;5085086;28;20458;-82
2021/07/27 11:51:30;;;;;;;6.13;4.60;;;29.00;29.30;;;;;;5084688;28;20508;-82
2021/07/27 11:53:57;;;;;;;5.70;5.00;;;28.90;29.90;;;;;;5084832;28;20451;-82
2021/07/27 11:56:24;;;;;;;4.80;4.20;;;29.20;29.90;;;;;;5067992;28;20451;-82
2021/07/27 11:59:02;;;;;;;5.17;4.60;;;29.50;29.60;;;;;;5065000;28;20469;-83
2021/07/27 12:01:40;;;;;;;5.00;4.60;;;29.40;28.00;;;;;;5065228;28;20439;-82
2021/07/27 12:04:08;;;;;;;5.80;4.90;;;29.30;27.00;;;;;;5065610;28;20492;-82
2021/07/27 12:06:46;;;;;;;5.60;4.50;;;29.20;29.00;;;;;;5080041;28;20418;-81
2021/07/27 12:09:13;;;;;;;6.33;4.80;;;29.40;29.00;;;;;;5090833;28;20452;-82
2021/07/27 12:11:40;;;;;;;5.10;4.70;;;29.20;29.20;;;;;;5092894;28;20452;-83
2021/07/27 12:14:08;;;;;;;6.33;4.90;;;29.10;30.50;;;;;;5112078;28;20938;-82
2021/07/27 12:16:35;;;;;;;5.40;4.90;;;29.30;29.70;;;;;;5111776;28;20436;-83
2021/07/27 12:19:02;;;;;;;5.50;4.40;;;29.30;30.50;;;;;;5107783;28;20547;-82
2021/07/27 12:21:29;;;;;;;5.17;4.67;;;29.00;30.40;;;;;;5099369;28;20459;-82
2021/07/27 12:23:56;;;;;;;5.50;4.77;;;29.10;30.60;;;;;;5092396;28;20454;-82
2021/07/27 12:26:23;;;;;;;8.83;5.00;;;29.00;30.70;;;;;;5089524;28;20440;-81
2021/07/27 12:28:50;;;;;;;5.50;5.00;;;29.00;30.70;;;;;;5089041;28;20434;-83
2021/07/27 12:31:18;;;;;;;5.40;4.90;;;29.10;31.30;;;;;;5088978;28;20448;-82
2021/07/27 12:33:47;;;;;;;5.60;5.10;;;28.90;31.50;;;;;;5089944;28;20474;-84
2021/07/27 12:36:14;;;;;;;5.03;4.63;;;29.00;30.40;;;;;;5094912;28;20772;-83
2021/07/27 12:38:40;;;;;;;5.63;5.13;;;29.30;29.10;;;;;;5094368;28;20447;-83
2021/07/27 12:41:07;;;;;;;4.57;4.20;;;29.50;28.60;;;;;;5093687;28;20411;-82
2021/07/27 12:43:35;;;;;;;5.27;4.87;;;29.00;30.00;;;;;;5094910;28;20472;-82
2021/07/27 12:46:02;;;;;;;5.50;4.53;;;29.40;29.80;;;;;;5090189;28;20448;-82
2021/07/27 12:48:31;;;;;;;5.10;4.70;;;29.80;28.70;;;;;;5092179;28;20459;-82
2021/07/27 12:50:58;;;;;;;5.27;4.87;;;29.90;28.60;;;;;;5096111;28;20403;-80
2021/07/27 12:53:26;;;;;;;6.87;4.83;;;29.70;29.10;;;;;;5095845;28;20431;-82
2021/07/27 12:55:55;;;;;;;6.73;4.77;;;29.50;29.50;;;;;;5095824;28;20435;-82
2021/07/27 12:58:22;;;;;;;8.73;4.83;;;29.40;29.90;;;;;;5096940;28;20426;-82
2021/07/27 13:00:50;;;;;;;6.17;5.57;;;29.20;30.70;;;;;;5093319;28;20460;-83
2021/07/27 13:03:18;;;;;;;5.53;5.03;;;27.20;33.50;;;;;;5096811;28;20486;-83
2021/07/27 13:05:47;;;;;;;6.20;5.03;;;27.80;33.10;;;;;;5097534;28;20436;-85
2021/07/27 13:08:14;;;;;;;4.73;4.40;;;28.20;31.60;;;;;;5097376;28;20438;-84
2021/07/27 13:10:41;;;;;;;5.77;4.60;;;28.90;30.60;;;;;;5097031;28;20463;-83